createdAt,value
2023-12-14T00:00:31.905Z,97159.63
2023-12-14T00:01:33.655Z,97156.97
2023-12-14T00:02:35.540Z,97159.75
2023-12-14T00:03:37.338Z,97157.94
2023-12-14T00:04:39.478Z,97159.53
2023-12-14T00:05:41.597Z,97160.69
2023-12-14T00:06:43.209Z,97168.50
2023-12-14T00:07:44.847Z,97169.09
2023-12-14T00:08:46.432Z,97156.91
2023-12-14T00:09:48.012Z,97171.56
2023-12-14T00:10:51.611Z,97161.03
2023-12-14T00:11:53.274Z,97154.56
2023-12-14T00:12:56.416Z,97154.53
2023-12-14T00:13:58.243Z,97175.72
2023-12-14T00:14:59.847Z,97174.81
2023-12-14T00:16:01.553Z,97173.50
2023-12-14T00:17:03.689Z,97176.22
2023-12-14T00:18:05.498Z,97175.16
2023-12-14T00:19:07.136Z,97178.34
2023-12-14T00:20:09.394Z,97174.09
2023-12-14T00:21:11.745Z,97176.78
2023-12-14T00:22:13.379Z,97176.00
2023-12-14T00:23:15.122Z,97179.75
2023-12-14T00:24:16.720Z,97182.22
2023-12-14T00:25:18.332Z,97184.09
2023-12-14T00:26:19.957Z,97174.69
2023-12-14T00:27:21.659Z,97177.59
2023-12-14T00:28:25.317Z,97177.59
2023-12-14T00:29:28.478Z,97181.22
2023-12-14T00:30:30.698Z,97172.50
2023-12-14T00:31:32.370Z,97188.25
2023-12-14T00:32:34.743Z,97184.00
2023-12-14T00:33:36.557Z,97181.81
2023-12-14T00:34:38.357Z,97188.25
2023-12-14T00:35:39.929Z,97187.75
2023-12-14T00:36:41.520Z,97181.25
2023-12-14T00:37:43.601Z,97190.47
2023-12-14T00:38:45.179Z,97187.25
2023-12-14T00:39:46.731Z,97188.91
2023-12-14T00:40:48.364Z,97188.91
2023-12-14T00:41:49.943Z,97186.22
2023-12-14T00:42:52.058Z,97188.69
2023-12-14T00:43:53.952Z,97188.38
2023-12-14T00:44:55.565Z,97190.00
2023-12-14T00:45:57.174Z,97193.22
2023-12-14T00:46:59.889Z,97200.25
2023-12-14T00:48:01.547Z,97199.16
2023-12-14T00:49:03.555Z,97208.06
2023-12-14T00:50:06.436Z,97207.78
2023-12-14T00:51:08.056Z,97204.16
2023-12-14T00:52:09.648Z,97204.66
2023-12-14T00:53:11.312Z,97206.47
2023-12-14T00:54:12.873Z,97184.19
2023-12-14T00:55:14.974Z,97208.91
2023-12-14T00:56:18.403Z,97208.66
2023-12-14T00:57:20.577Z,97214.63
2023-12-14T00:58:22.152Z,97214.00
2023-12-14T00:59:24.514Z,97215.84
2023-12-14T01:00:26.179Z,97212.25
2023-12-14T01:01:27.893Z,97221.94
2023-12-14T01:02:29.539Z,97219.22
2023-12-14T01:03:31.142Z,97233.78
2023-12-14T01:04:33.372Z,97225.03
2023-12-14T01:05:34.978Z,97238.97
2023-12-14T01:06:37.225Z,97230.88
2023-12-14T01:07:38.873Z,97235.22
2023-12-14T01:08:40.456Z,97238.47
2023-12-14T01:09:42.032Z,97235.81
2023-12-14T01:10:43.756Z,97239.03
2023-12-14T01:11:46.082Z,97238.47
2023-12-14T01:12:47.629Z,97244.03
2023-12-14T01:13:49.235Z,97239.19
2023-12-14T01:14:50.828Z,97240.75
2023-12-14T01:15:52.480Z,97235.16
2023-12-14T01:16:54.631Z,97250.31
2023-12-14T01:17:56.338Z,97246.56
2023-12-14T01:18:58.131Z,97250.00
2023-12-14T01:19:59.848Z,97256.03
2023-12-14T01:21:01.515Z,97251.16
2023-12-14T01:22:03.056Z,97260.06
2023-12-14T01:23:05.367Z,97255.75
2023-12-14T01:24:07.054Z,97250.69
2023-12-14T01:25:08.767Z,97269.44
2023-12-14T01:26:10.414Z,97265.84
2023-12-14T01:27:14.981Z,97269.13
2023-12-14T01:28:16.613Z,97267.28
2023-12-14T01:29:18.177Z,97272.44
2023-12-14T01:30:19.773Z,97275.56
2023-12-14T01:31:24.392Z,97265.28
2023-12-14T01:32:26.081Z,97262.91
2023-12-14T01:33:27.788Z,97275.94
2023-12-14T01:34:32.309Z,97257.81
2023-12-14T01:35:40.860Z,97271.72
2023-12-14T01:36:45.339Z,97252.38
2023-12-14T01:37:47.891Z,97278.78
2023-12-14T01:38:55.823Z,97275.28
2023-12-14T01:40:00.745Z,97281.56
2023-12-14T01:41:04.429Z,97271.84
2023-12-14T01:42:07.310Z,97284.06
2023-12-14T01:43:11.727Z,97265.50
2023-12-14T01:44:14.478Z,97273.47
2023-12-14T01:45:17.731Z,97240.34
2023-12-14T01:46:19.417Z,97278.69
2023-12-14T01:47:23.786Z,97290.50
2023-12-14T01:48:28.263Z,97261.47
2023-12-14T01:49:31.018Z,97285.22
2023-12-14T01:50:35.952Z,97281.22
2023-12-14T01:51:37.681Z,97294.84
2023-12-14T01:52:39.264Z,97289.94
2023-12-14T01:53:41.841Z,97291.81
2023-12-14T01:54:44.032Z,97289.88
2023-12-14T01:55:45.704Z,97300.09
2023-12-14T01:56:47.969Z,97303.84
2023-12-14T01:57:50.178Z,97304.66
2023-12-14T01:58:51.795Z,97306.63
2023-12-14T01:59:53.351Z,97303.75
2023-12-14T02:01:21.604Z,97315.81
2023-12-14T02:02:23.200Z,97314.56
2023-12-14T02:03:25.301Z,97308.06
2023-12-14T02:04:26.985Z,97313.97
2023-12-14T02:05:29.212Z,97312.09
2023-12-14T02:06:30.936Z,97302.34
2023-12-14T02:07:33.052Z,97317.78
2023-12-14T02:08:34.625Z,97316.44
2023-12-14T02:09:36.180Z,97327.47
2023-12-14T02:10:37.816Z,97320.50
2023-12-14T02:11:40.170Z,97325.66
2023-12-14T02:12:41.785Z,97307.63
2023-12-14T02:13:44.010Z,97323.88
2023-12-14T02:14:45.612Z,97327.16
2023-12-14T02:15:47.214Z,97327.88
2023-12-14T02:16:49.269Z,97324.94
2023-12-14T02:17:51.145Z,97325.63
2023-12-14T02:18:52.816Z,97331.03
2023-12-14T02:19:54.475Z,97333.22
2023-12-14T02:20:56.214Z,97335.16
2023-12-14T02:21:57.880Z,97337.38
2023-12-14T02:22:59.696Z,97336.06
2023-12-14T02:24:01.336Z,97335.72
2023-12-14T02:25:02.877Z,97330.09
2023-12-14T02:26:04.655Z,97339.56
2023-12-14T02:27:06.771Z,97333.53
2023-12-14T02:28:08.812Z,97341.38
2023-12-14T02:29:10.468Z,97343.56
2023-12-14T02:30:12.954Z,97348.19
2023-12-14T02:31:14.529Z,97350.16
2023-12-14T02:32:16.113Z,97341.84
2023-12-14T02:33:18.180Z,97344.28
2023-12-14T02:34:21.778Z,97337.25
2023-12-14T02:35:23.793Z,97347.03
2023-12-14T02:36:25.347Z,97348.66
2023-12-14T02:37:26.885Z,97342.72
2023-12-14T02:38:29.001Z,97345.16
2023-12-14T02:39:30.569Z,97344.09
2023-12-14T02:40:32.175Z,97347.31
2023-12-14T02:41:34.683Z,97348.38
2023-12-14T02:42:36.965Z,97354.63
2023-12-14T02:43:39.477Z,97349.56
2023-12-14T02:44:41.097Z,97352.50
2023-12-14T02:45:43.151Z,97350.31
2023-12-14T02:46:44.713Z,97360.59
2023-12-14T02:47:48.839Z,97356.22
2023-12-14T02:48:50.540Z,97360.28
2023-12-14T02:49:52.679Z,97361.41
2023-12-14T02:50:54.237Z,97362.56
2023-12-14T02:51:55.753Z,97359.03
2023-12-14T02:52:57.320Z,97362.28
2023-12-14T02:53:59.063Z,97368.50
2023-12-14T02:55:01.074Z,97367.69
2023-12-14T02:56:03.311Z,97350.81
2023-12-14T02:57:05.235Z,97373.34
2023-12-14T02:58:06.775Z,97373.25
2023-12-14T02:59:08.575Z,97378.75
2023-12-14T03:00:10.645Z,97375.28
2023-12-14T03:01:12.334Z,97382.78
2023-12-14T03:02:14.491Z,97385.00
2023-12-14T03:03:16.064Z,97393.41
2023-12-14T03:04:18.099Z,97385.56
2023-12-14T03:05:19.781Z,97397.19
2023-12-14T03:06:21.601Z,97385.81
2023-12-14T03:07:23.209Z,97392.84
2023-12-14T03:08:25.242Z,97391.78
2023-12-14T03:09:26.839Z,97394.72
2023-12-14T03:10:28.378Z,97397.09
2023-12-14T03:11:29.944Z,97393.09
2023-12-14T03:12:32.026Z,97394.72
2023-12-14T03:13:34.431Z,97387.94
2023-12-14T03:14:36.499Z,97384.63
2023-12-14T03:15:38.044Z,97395.72
2023-12-14T03:16:40.128Z,97398.97
2023-12-14T03:17:41.743Z,97395.72
2023-12-14T03:18:43.956Z,97398.91
2023-12-14T03:19:45.621Z,97404.88
2023-12-14T03:20:47.252Z,97404.06
2023-12-14T03:21:49.327Z,97401.13
2023-12-14T03:22:51.400Z,97409.44
2023-12-14T03:23:53.144Z,97402.66
2023-12-14T03:24:54.697Z,97395.41
2023-12-14T03:25:56.324Z,97399.78
2023-12-14T03:26:57.910Z,97406.00
2023-12-14T03:27:59.506Z,97406.25
2023-12-14T03:29:01.155Z,97411.38
2023-12-14T03:30:04.524Z,97414.09
2023-12-14T03:31:06.248Z,97416.78
2023-12-14T03:32:07.960Z,97417.94
2023-12-14T03:33:09.734Z,97415.81
2023-12-14T03:34:11.449Z,97415.22
2023-12-14T03:35:13.190Z,97417.25
2023-12-14T03:36:14.840Z,97422.41
2023-12-14T03:37:16.407Z,97427.72
2023-12-14T03:38:17.981Z,97420.38
2023-12-14T03:39:19.609Z,97418.50
2023-12-14T03:40:21.892Z,97423.31
2023-12-14T03:41:24.016Z,97419.00
2023-12-14T03:42:25.569Z,97420.81
2023-12-14T03:43:27.136Z,97428.38
2023-12-14T03:44:28.742Z,97430.59
2023-12-14T03:45:30.401Z,97412.41
2023-12-14T03:46:32.507Z,97439.00
2023-12-14T03:47:34.099Z,97436.38
2023-12-14T03:48:35.682Z,97446.09
2023-12-14T03:49:40.043Z,97435.75
2023-12-14T03:50:42.321Z,97445.28
2023-12-14T03:51:44.213Z,97439.66
2023-12-14T03:52:46.093Z,97439.66
2023-12-14T03:53:47.933Z,97443.16
2023-12-14T03:54:50.028Z,97442.28
2023-12-14T03:55:51.624Z,97438.78
2023-12-14T03:56:53.687Z,97450.66
2023-12-14T03:57:55.223Z,97448.78
2023-12-14T03:58:58.343Z,97450.63
2023-12-14T04:00:00.053Z,97453.06
2023-12-14T04:01:01.764Z,97458.94
2023-12-14T04:02:03.372Z,97452.97
2023-12-14T04:03:04.996Z,97461.66
2023-12-14T04:04:07.060Z,97467.53
2023-12-14T04:05:10.050Z,97461.56
2023-12-14T04:06:12.867Z,97472.53
2023-12-14T04:07:14.578Z,97471.94
2023-12-14T04:08:16.670Z,97475.47
2023-12-14T04:09:18.387Z,97476.28
2023-12-14T04:10:20.463Z,97477.09
2023-12-14T04:11:22.009Z,97472.78
2023-12-14T04:12:23.600Z,97487.41
2023-12-14T04:13:25.231Z,97472.84
2023-12-14T04:14:26.778Z,97477.69
2023-12-14T04:15:29.445Z,97480.84
2023-12-14T04:16:31.051Z,97485.09
2023-12-14T04:17:32.758Z,97477.59
2023-12-14T04:18:34.949Z,97485.09
2023-12-14T04:19:37.149Z,97493.75
2023-12-14T04:20:38.732Z,97488.38
2023-12-14T04:21:40.291Z,97489.75
2023-12-14T04:22:41.866Z,97496.13
2023-12-14T04:23:43.519Z,97498.00
2023-12-14T04:24:45.589Z,97479.06
2023-12-14T04:25:47.164Z,97492.59
2023-12-14T04:26:49.272Z,97498.28
2023-12-14T04:27:51.215Z,97500.78
2023-12-14T04:28:53.335Z,97491.66
2023-12-14T04:29:55.005Z,97504.53
2023-12-14T04:30:56.636Z,97505.84
2023-12-14T04:31:58.307Z,97509.94
2023-12-14T04:33:00.419Z,97506.19
2023-12-14T04:34:02.064Z,97510.50
2023-12-14T04:35:04.097Z,97507.25
2023-12-14T04:36:05.982Z,97502.09
2023-12-14T04:37:08.127Z,97513.22
2023-12-14T04:38:09.869Z,97515.66
2023-12-14T04:39:11.468Z,97521.78
2023-12-14T04:40:13.135Z,97517.97
2023-12-14T04:41:14.991Z,97517.97
2023-12-14T04:42:16.609Z,97520.56
2023-12-14T04:43:18.642Z,97531.56
2023-12-14T04:44:21.242Z,97506.09
2023-12-14T04:45:23.290Z,97529.47
2023-12-14T04:46:24.826Z,97523.97
2023-12-14T04:47:26.531Z,97524.06
2023-12-14T04:48:28.222Z,97529.53
2023-12-14T04:49:30.323Z,97530.94
2023-12-14T04:50:31.889Z,97530.94
2023-12-14T04:51:33.618Z,97532.50
2023-12-14T04:52:35.978Z,97536.00
2023-12-14T04:53:37.686Z,97539.00
2023-12-14T04:54:42.063Z,97542.28
2023-12-14T04:55:45.701Z,97550.31
2023-12-14T04:56:47.632Z,97545.41
2023-12-14T04:57:50.537Z,97545.47
2023-12-14T04:58:52.127Z,97551.84
2023-12-14T04:59:53.728Z,97552.44
2023-12-14T05:00:55.760Z,97549.72
2023-12-14T05:01:57.321Z,97546.88
2023-12-14T05:02:58.851Z,97556.56
2023-12-14T05:04:00.405Z,97554.44
2023-12-14T05:05:02.029Z,97551.44
2023-12-14T05:06:03.843Z,97546.41
2023-12-14T05:07:05.432Z,97559.75
2023-12-14T05:08:07.031Z,97554.03
2023-12-14T05:09:08.690Z,97561.88
2023-12-14T05:10:11.395Z,97561.13
2023-12-14T05:11:15.866Z,97552.03
2023-12-14T05:12:17.490Z,97552.72
2023-12-14T05:13:19.075Z,97552.72
2023-12-14T05:14:20.655Z,97538.88
2023-12-14T05:15:22.357Z,97551.53
2023-12-14T05:16:28.161Z,97559.88
2023-12-14T05:17:29.714Z,97561.16
2023-12-14T05:18:32.045Z,97560.34
2023-12-14T05:19:37.304Z,97564.44
2023-12-14T05:20:39.227Z,97558.72
2023-12-14T05:21:40.771Z,97555.53
2023-12-14T05:22:42.833Z,97576.22
2023-12-14T05:23:44.565Z,97571.97
2023-12-14T05:24:48.698Z,97573.75
2023-12-14T05:25:50.289Z,97548.41
2023-12-14T05:26:51.886Z,97571.97
2023-12-14T05:27:53.459Z,97583.56
2023-12-14T05:28:55.238Z,97588.06
2023-12-14T05:29:56.885Z,97584.78
2023-12-14T05:30:58.559Z,97581.16
2023-12-14T05:32:00.863Z,97586.00
2023-12-14T05:33:03.161Z,97591.16
2023-12-14T05:34:04.812Z,97600.28
2023-12-14T05:35:07.132Z,97603.53
2023-12-14T05:36:11.981Z,97603.44
2023-12-14T05:37:13.865Z,97612.63
2023-12-14T05:38:15.502Z,97608.66
2023-12-14T05:39:17.101Z,97610.41
2023-12-14T05:40:18.706Z,97617.78
2023-12-14T05:41:20.373Z,97612.03
2023-12-14T05:42:23.268Z,97612.97
2023-12-14T05:43:25.246Z,97618.22
2023-12-14T05:44:27.328Z,97620.91
2023-12-14T05:45:29.682Z,97623.38
2023-12-14T05:46:31.897Z,97623.84
2023-12-14T05:47:35.236Z,97613.53
2023-12-14T05:48:38.571Z,97624.44
2023-12-14T05:49:44.593Z,97627.38
2023-12-14T05:50:46.148Z,97629.38
2023-12-14T05:51:47.970Z,97630.19
2023-12-14T05:52:49.552Z,97636.63
2023-12-14T05:53:51.163Z,97631.84
2023-12-14T05:54:52.775Z,97635.06
2023-12-14T05:55:54.778Z,97641.06
2023-12-14T05:56:56.323Z,97646.13
2023-12-14T05:57:57.942Z,97644.25
2023-12-14T05:59:00.869Z,97644.25
2023-12-14T06:00:02.754Z,97638.28
2023-12-14T06:01:04.754Z,97646.94
2023-12-14T06:02:07.819Z,97642.69
2023-12-14T06:03:09.523Z,97638.47
2023-12-14T06:04:11.609Z,97642.47
2023-12-14T06:05:13.413Z,97645.97
2023-12-14T06:06:15.799Z,97653.00
2023-12-14T06:07:18.170Z,97661.66
2023-12-14T06:08:20.171Z,97654.63
2023-12-14T06:09:26.341Z,97646.66
2023-12-14T06:10:28.454Z,97669.28
2023-12-14T06:11:30.034Z,97656.75
2023-12-14T06:12:31.678Z,97670.41
2023-12-14T06:13:33.779Z,97663.88
2023-12-14T06:14:35.842Z,97674.16
2023-12-14T06:15:37.902Z,97673.13
2023-12-14T06:16:39.469Z,97674.16
2023-12-14T06:17:43.446Z,97673.34
2023-12-14T06:18:45.310Z,97666.66
2023-12-14T06:19:47.447Z,97684.34
2023-12-14T06:20:49.983Z,97665.66
2023-12-14T06:21:51.623Z,97692.22
2023-12-14T06:22:53.902Z,97685.69
2023-12-14T06:23:57.435Z,97694.31
2023-12-14T06:24:59.036Z,97692.22
2023-12-14T06:26:00.691Z,97689.75
2023-12-14T06:27:02.232Z,97686.53
2023-12-14T06:28:04.720Z,97694.22
2023-12-14T06:29:06.355Z,97706.88
2023-12-14T06:30:10.822Z,97699.63
2023-12-14T06:31:16.008Z,97705.91
2023-12-14T06:32:17.653Z,97707.69
2023-12-14T06:33:19.829Z,97695.72
2023-12-14T06:34:21.484Z,97706.84
2023-12-14T06:35:23.198Z,97711.06
2023-12-14T06:36:28.062Z,97700.66
2023-12-14T06:37:30.168Z,97701.00
2023-12-14T06:38:32.984Z,97703.69
2023-12-14T06:39:34.609Z,97711.63
2023-12-14T06:40:36.405Z,97699.44
2023-12-14T06:41:37.994Z,97694.31
2023-12-14T06:42:39.598Z,97712.69
2023-12-14T06:43:42.128Z,97709.75
2023-12-14T06:44:43.820Z,97717.84
2023-12-14T06:45:45.643Z,97722.75
2023-12-14T06:46:47.246Z,97718.19
2023-12-14T06:47:50.441Z,97721.59
2023-12-14T06:48:52.264Z,97723.22
2023-12-14T06:49:54.018Z,97733.31
2023-12-14T06:50:56.203Z,97727.81
2023-12-14T06:51:57.845Z,97736.81
2023-12-14T06:52:59.559Z,97736.47
2023-12-14T06:54:01.149Z,97736.47
2023-12-14T06:55:02.800Z,97745.50
2023-12-14T06:56:05.204Z,97718.91
2023-12-14T06:57:06.827Z,97751.22
2023-12-14T06:58:12.408Z,97741.97
2023-12-14T06:59:14.041Z,97749.09
2023-12-14T07:00:15.981Z,97751.22
2023-12-14T07:01:18.670Z,97751.72
2023-12-14T07:02:20.288Z,97752.50
2023-12-14T07:03:21.942Z,97760.59
2023-12-14T07:04:23.569Z,97766.56
2023-12-14T07:05:25.532Z,97775.47
2023-12-14T07:06:27.229Z,97778.53
2023-12-14T07:07:28.771Z,97775.34
2023-12-14T07:08:30.365Z,97766.44
2023-12-14T07:09:31.980Z,97776.75
2023-12-14T07:10:33.581Z,97769.72
2023-12-14T07:11:35.175Z,97765.41
2023-12-14T07:12:37.068Z,97779.09
2023-12-14T07:13:39.597Z,97785.09
2023-12-14T07:14:41.396Z,97781.56
2023-12-14T07:15:42.954Z,97790.94
2023-12-14T07:16:44.704Z,97759.69
2023-12-14T07:17:46.384Z,97787.88
2023-12-14T07:18:48.309Z,97789.28
2023-12-14T07:19:53.182Z,97775.00
2023-12-14T07:20:54.749Z,97795.25
2023-12-14T07:21:56.406Z,97781.66
2023-12-14T07:22:57.996Z,97801.69
2023-12-14T07:24:00.255Z,97797.38
2023-12-14T07:25:02.361Z,97805.00
2023-12-14T07:26:07.065Z,97803.22
2023-12-14T07:27:09.739Z,97798.66
2023-12-14T07:28:11.334Z,97808.38
2023-12-14T07:29:12.978Z,97802.41
2023-12-14T07:30:14.841Z,97789.44
2023-12-14T07:31:16.550Z,97815.06
2023-12-14T07:32:18.445Z,97811.53
2023-12-14T07:33:20.800Z,97809.13
2023-12-14T07:34:22.641Z,97810.72
2023-12-14T07:35:25.157Z,97813.19
2023-12-14T07:36:27.004Z,97808.16
2023-12-14T07:37:28.573Z,97817.53
2023-12-14T07:38:30.503Z,97822.22
2023-12-14T07:39:32.621Z,97808.38
2023-12-14T07:40:34.257Z,97830.31
2023-12-14T07:41:36.611Z,97831.38
2023-12-14T07:42:38.817Z,97826.66
2023-12-14T07:43:40.707Z,97833.22
2023-12-14T07:44:42.614Z,97828.28
2023-12-14T07:45:44.396Z,97827.81
2023-12-14T07:46:48.360Z,97830.38
2023-12-14T07:47:50.451Z,97822.63
2023-12-14T07:48:52.342Z,97829.94
2023-12-14T07:49:57.374Z,97836.28
2023-12-14T07:50:59.045Z,97835.13
2023-12-14T07:52:01.113Z,97840.16
2023-12-14T07:53:02.760Z,97844.94
2023-12-14T07:54:05.469Z,97844.72
2023-12-14T07:55:07.390Z,97847.09
2023-12-14T07:56:09.234Z,97857.38
2023-12-14T07:57:11.305Z,97850.34
2023-12-14T07:58:14.775Z,97847.78
2023-12-14T07:59:16.634Z,97856.00
2023-12-14T08:00:18.499Z,97848.25
2023-12-14T08:01:20.947Z,97830.56
2023-12-14T08:02:22.970Z,97860.44
2023-12-14T08:03:25.002Z,97850.81
2023-12-14T08:04:26.688Z,97864.06
2023-12-14T08:05:31.088Z,97848.72
2023-12-14T08:06:32.901Z,97861.00
2023-12-14T08:07:34.645Z,97857.03
2023-12-14T08:08:39.901Z,97857.03
2023-12-14T08:09:41.463Z,97870.59
2023-12-14T08:10:45.701Z,97866.88
2023-12-14T08:11:47.946Z,97859.00
2023-12-14T08:12:49.586Z,97863.34
2023-12-14T08:13:51.266Z,97872.63
2023-12-14T08:14:52.867Z,97873.44
2023-12-14T08:15:54.408Z,97862.19
2023-12-14T08:16:55.984Z,97880.00
2023-12-14T08:17:57.667Z,97878.69
2023-12-14T08:18:59.813Z,97880.31
2023-12-14T08:20:01.416Z,97879.50
2023-12-14T08:21:03.016Z,97874.69
2023-12-14T08:22:04.835Z,97874.94
2023-12-14T08:23:06.424Z,97872.00
2023-12-14T08:24:08.656Z,97877.16
2023-12-14T08:25:11.363Z,97886.94
2023-12-14T08:26:14.194Z,97887.97
2023-12-14T08:27:15.793Z,97887.63
2023-12-14T08:28:17.341Z,97879.19
2023-12-14T08:29:19.521Z,97883.19
2023-12-14T08:30:22.014Z,97887.63
2023-12-14T08:31:23.866Z,97887.50
2023-12-14T08:32:25.479Z,97894.41
2023-12-14T08:33:27.144Z,97891.34
2023-12-14T08:34:29.646Z,97889.38
2023-12-14T08:35:31.752Z,97902.84
2023-12-14T08:36:33.841Z,97902.63
2023-12-14T08:37:36.941Z,97899.81
2023-12-14T08:38:38.592Z,97908.47
2023-12-14T08:39:40.498Z,97913.06
2023-12-14T08:40:42.168Z,97895.94
2023-12-14T08:41:45.939Z,97906.47
2023-12-14T08:42:48.451Z,97907.50
2023-12-14T08:43:50.061Z,97914.56
2023-12-14T08:44:51.706Z,97925.13
2023-12-14T08:45:53.338Z,97931.13
2023-12-14T08:46:54.961Z,97938.25
2023-12-14T08:47:56.578Z,97928.66
2023-12-14T08:48:58.540Z,97939.81
2023-12-14T08:50:00.215Z,97916.34
2023-12-14T08:51:01.839Z,97930.75
2023-12-14T08:52:05.288Z,97944.22
2023-12-14T08:53:07.896Z,97939.34
2023-12-14T08:54:10.258Z,97935.09
2023-12-14T08:55:11.844Z,97942.00
2023-12-14T08:56:13.484Z,97940.59
2023-12-14T08:57:15.101Z,97951.28
2023-12-14T08:58:16.674Z,97945.19
2023-12-14T08:59:20.950Z,97951.50
2023-12-14T09:00:22.644Z,97957.94
2023-12-14T09:01:24.443Z,97950.22
2023-12-14T09:02:26.121Z,97954.69
2023-12-14T09:03:28.404Z,97956.31
2023-12-14T09:04:30.368Z,97955.63
2023-12-14T09:05:32.150Z,97944.44
2023-12-14T09:06:34.078Z,97958.78
2023-12-14T09:07:35.751Z,97961.59
2023-12-14T09:08:37.496Z,97962.78
2023-12-14T09:09:39.086Z,97960.53
2023-12-14T09:10:40.670Z,97959.50
2023-12-14T09:11:42.272Z,97965.34
2023-12-14T09:12:44.011Z,97965.22
2023-12-14T09:13:45.592Z,97969.94
2023-12-14T09:14:47.905Z,97974.06
2023-12-14T09:15:53.468Z,97978.25
2023-12-14T09:16:55.136Z,97982.47
2023-12-14T09:17:56.808Z,97965.34
2023-12-14T09:18:58.628Z,97971.44
2023-12-14T09:20:01.845Z,97974.16
2023-12-14T09:21:04.489Z,97977.41
2023-12-14T09:22:06.052Z,97971.53
2023-12-14T09:23:07.635Z,97984.59
2023-12-14T09:24:13.282Z,97976.25
2023-12-14T09:25:16.897Z,97979.28
2023-12-14T09:26:20.329Z,97984.41
2023-12-14T09:27:23.157Z,97981.03
2023-12-14T09:28:24.745Z,97976.72
2023-12-14T09:29:26.449Z,97984.38
2023-12-14T09:30:28.311Z,97980.59
2023-12-14T09:31:30.032Z,97988.78
2023-12-14T09:32:31.981Z,97992.66
2023-12-14T09:33:33.708Z,97990.44
2023-12-14T09:34:35.367Z,97993.13
2023-12-14T09:35:38.100Z,97995.75
2023-12-14T09:36:42.723Z,98008.66
2023-12-14T09:37:44.322Z,98006.06
2023-12-14T09:38:46.968Z,97996.81
2023-12-14T09:39:48.641Z,98005.59
2023-12-14T09:40:50.569Z,98001.81
2023-12-14T09:41:52.193Z,98007.22
2023-12-14T09:42:53.770Z,97998.44
2023-12-14T09:43:55.509Z,98012.03
2023-12-14T09:44:57.464Z,98011.13
2023-12-14T09:45:59.479Z,98007.38
2023-12-14T09:47:01.181Z,98011.44
2023-12-14T09:48:03.051Z,98009.94
2023-12-14T09:49:06.674Z,98001.94
2023-12-14T09:50:12.342Z,98011.19
2023-12-14T09:51:14.283Z,98012.00
2023-12-14T09:52:15.907Z,98014.00
2023-12-14T09:53:17.642Z,98014.84
2023-12-14T09:54:19.242Z,98015.41
2023-12-14T09:55:20.835Z,98017.53
2023-12-14T09:56:22.769Z,98017.31
2023-12-14T09:57:26.827Z,98031.47
2023-12-14T09:58:28.460Z,98024.78
2023-12-14T09:59:30.092Z,98023.22
2023-12-14T10:00:34.177Z,98022.44
2023-12-14T10:01:36.222Z,98028.16
2023-12-14T10:02:37.937Z,98017.50
2023-12-14T10:03:39.560Z,98034.03
2023-12-14T10:04:41.270Z,98036.19
2023-12-14T10:05:43.066Z,98034.31
2023-12-14T10:06:47.155Z,98041.09
2023-12-14T10:07:49.306Z,98040.97
2023-12-14T10:08:55.405Z,98038.84
2023-12-14T10:09:57.845Z,98045.06
2023-12-14T10:11:01.465Z,98034.97
2023-12-14T10:12:08.233Z,98048.25
2023-12-14T10:13:09.790Z,98042.59
2023-12-14T10:14:25.945Z,98037.22
2023-12-14T10:15:27.802Z,98033.69
2023-12-14T10:16:33.287Z,98037.63
2023-12-14T10:17:35.560Z,98038.69
2023-12-14T10:18:39.018Z,98037.06
2023-12-14T10:19:43.873Z,98042.94
2023-12-14T10:20:46.305Z,98042.81
2023-12-14T10:21:50.348Z,98042.81
2023-12-14T10:22:52.073Z,98043.72
2023-12-14T10:23:56.178Z,98038.47
2023-12-14T10:24:57.777Z,98028.13
2023-12-14T10:25:59.387Z,98045.03
2023-12-14T10:27:01.967Z,98051.03
2023-12-14T10:28:05.735Z,98056.91
2023-12-14T10:29:07.800Z,98042.13
2023-12-14T10:30:13.407Z,98039.44
2023-12-14T10:31:16.703Z,98045.91
2023-12-14T10:32:18.732Z,98055.16
2023-12-14T10:33:21.384Z,98053.25
2023-12-14T10:34:23.095Z,98047.19
2023-12-14T10:35:24.845Z,98059.97
2023-12-14T10:36:26.896Z,98056.78
2023-12-14T10:37:28.792Z,98047.03
2023-12-14T10:38:30.815Z,98057.25
2023-12-14T10:39:32.685Z,98066.19
2023-12-14T10:40:34.329Z,98055.53
2023-12-14T10:41:35.922Z,98067.34
2023-12-14T10:42:37.691Z,98056.19
2023-12-14T10:43:48.528Z,98069.94
2023-12-14T10:45:58.451Z,98062.09
2023-12-14T10:47:00.205Z,98072.41
2023-12-14T10:48:02.691Z,98069.47
2023-12-14T10:49:04.697Z,98055.53
2023-12-14T10:50:06.966Z,98070.22
2023-12-14T10:51:09.408Z,98071.84
2023-12-14T10:52:10.982Z,98073.16
2023-12-14T10:53:12.936Z,98072.09
2023-12-14T10:54:14.634Z,98067.38
2023-12-14T10:55:31.509Z,98064.91
2023-12-14T10:56:33.122Z,98075.69
2023-12-14T10:57:35.378Z,98070.44
2023-12-14T10:58:54.270Z,98079.00
2023-12-14T11:00:02.346Z,98080.16
2023-12-14T11:01:04.000Z,98080.16
2023-12-14T11:02:12.747Z,98076.75
2023-12-14T11:03:14.618Z,98081.09
2023-12-14T11:04:18.449Z,98084.84
2023-12-14T11:05:27.487Z,98079.66
2023-12-14T11:06:30.572Z,98088.97
2023-12-14T11:07:56.059Z,98095.25
2023-12-14T11:09:07.982Z,98089.06
2023-12-14T11:10:10.632Z,98092.38
2023-12-14T11:11:14.486Z,98086.50
2023-12-14T11:12:20.368Z,98097.31
2023-12-14T11:13:21.927Z,98094.84
2023-12-14T11:14:27.220Z,98095.19
2023-12-14T11:15:29.910Z,98094.13
2023-12-14T11:16:31.624Z,98093.09
2023-12-14T11:17:36.392Z,98099.06
2023-12-14T11:18:38.231Z,98102.94
2023-12-14T11:19:40.805Z,98098.25
2023-12-14T11:20:51.624Z,98107.19
2023-12-14T11:21:58.744Z,98101.28
2023-12-14T11:23:08.588Z,98100.69
2023-12-14T11:24:10.172Z,98096.09
2023-12-14T11:25:11.796Z,98105.88
2023-12-14T11:26:16.823Z,98107.53
2023-12-14T11:27:18.424Z,98109.28
2023-12-14T11:28:20.693Z,98109.53
2023-12-14T11:29:23.276Z,98098.38
2023-12-14T11:30:25.188Z,98113.06
2023-12-14T11:31:28.968Z,98105.53
2023-12-14T11:32:31.089Z,98115.06
2023-12-14T11:33:39.401Z,98115.88
2023-12-14T11:34:43.783Z,98115.38
2023-12-14T11:35:45.403Z,98119.97
2023-12-14T11:36:49.836Z,98122.44
2023-12-14T11:37:51.413Z,98116.09
2023-12-14T11:38:55.936Z,98121.50
2023-12-14T11:39:57.938Z,98117.72
2023-12-14T11:41:00.485Z,98126.91
2023-12-14T11:42:03.416Z,98119.59
2023-12-14T11:43:09.082Z,98118.66
2023-12-14T11:44:10.687Z,98120.44
2023-12-14T11:45:12.319Z,98128.06
2023-12-14T11:46:15.108Z,98128.66
2023-12-14T11:47:16.865Z,98133.16
2023-12-14T11:48:19.005Z,98134.94
2023-12-14T11:49:21.041Z,98123.34
2023-12-14T11:50:23.063Z,98126.03
2023-12-14T11:51:26.985Z,98139.81
2023-12-14T11:52:29.188Z,98130.91
2023-12-14T11:53:32.106Z,98142.91
2023-12-14T11:54:33.853Z,98136.00
2023-12-14T11:55:37.038Z,98134.00
2023-12-14T11:56:39.603Z,98141.09
2023-12-14T11:57:47.509Z,98142.28
2023-12-14T11:58:50.030Z,98140.19
2023-12-14T11:59:52.219Z,98132.97
2023-12-14T12:00:54.131Z,98137.13
2023-12-14T12:01:59.384Z,98139.25
2023-12-14T12:03:10.023Z,98135.59
2023-12-14T12:04:12.423Z,98144.78
2023-12-14T12:05:19.778Z,98136.78
2023-12-14T12:06:26.349Z,98136.31
2023-12-14T12:07:28.052Z,98130.19
2023-12-14T12:08:30.052Z,98132.66
2023-12-14T12:09:35.901Z,98138.53
2023-12-14T12:10:40.666Z,98133.13
2023-12-14T12:11:42.705Z,98136.88
2023-12-14T12:12:45.946Z,98142.75
2023-12-14T12:13:54.840Z,98139.22
2023-12-14T12:14:56.628Z,98140.50